Time;durP1;ratioP1;P1;durP2;ratioP2;P2;SDS_P1;SDS_P2;PMS_P1;PMS_P2;Temp;Humidity;BMP_temperature;BMP_pressure;BME280_temperature;BME280_humidity;BME280_pressure;Samples;Min_cycle;Max_cycle;Signal;HPM_P1;HPM_P2
2022/01/22 00:00:36;;;;;;;20.82;8.08;;;;;;;-0.47;79.57;100861.62;1824936;78;20971;-71
2022/01/22 00:03:04;;;;;;;20.92;6.67;;;;;;;-0.44;79.66;100861.44;1825243;78;21377;-71
2022/01/22 00:05:30;;;;;;;17.70;6.30;;;;;;;-0.44;79.73;100856.19;1824948;78;21034;-71
2022/01/22 00:07:56;;;;;;;21.57;8.00;;;;;;;-0.44;79.85;100861.44;1825030;78;20998;-71
2022/01/22 00:10:24;;;;;;;16.80;8.10;;;;;;;-0.43;79.92;100861.36;1824945;78;21443;-71
2022/01/22 00:15:18;;;;;;;18.90;7.28;;;;;;;-0.37;80.11;100868.00;1825163;78;20851;-71
2022/01/22 00:17:45;;;;;;;16.65;6.22;;;;;;;-0.33;80.19;100856.42;1825159;78;21002;-71
2022/01/22 00:20:12;;;;;;;23.02;7.53;;;;;;;-0.32;80.27;100845.02;1825227;78;21084;-71
2022/01/22 00:22:38;;;;;;;17.80;6.20;;;;;;;-0.30;80.36;100853.61;1825298;78;21115;-71
2022/01/22 00:25:08;;;;;;;16.80;6.67;;;;;;;-0.29;80.43;100843.52;1825391;78;20956;-71
2022/01/22 00:27:35;;;;;;;47.78;20.85;;;;;;;-0.29;80.56;100839.59;1825043;78;21456;-71
2022/01/22 00:30:01;;;;;;;35.15;11.90;;;;;;;-0.29;80.65;100840.90;1825349;78;20998;-71
2022/01/22 00:32:27;;;;;;;23.80;9.45;;;;;;;-0.29;80.73;100843.52;1825221;78;20970;-71
2022/01/22 00:34:53;;;;;;;26.73;9.45;;;;;;;-0.30;80.83;100844.44;1825146;78;21510;-71
2022/01/22 00:37:19;;;;;;;17.52;7.35;;;;;;;-0.29;80.90;100844.83;1825231;78;21463;-71
2022/01/22 00:39:45;;;;;;;17.62;6.58;;;;;;;-0.29;80.99;100847.45;1824869;78;21632;-71
2022/01/22 00:42:13;;;;;;;18.95;7.58;;;;;;;-0.27;81.06;100846.87;1825082;78;20986;-71
2022/01/22 00:44:40;;;;;;;19.42;7.92;;;;;;;-0.27;81.13;100842.95;1824978;78;21494;-71
2022/01/22 00:47:05;;;;;;;19.07;7.42;;;;;;;-0.27;81.20;100843.80;1825662;78;21019;-71
2022/01/22 00:49:32;;;;;;;13.38;6.33;;;;;;;-0.25;81.30;100841.09;1824899;78;20974;-71
2022/01/22 00:51:58;;;;;;;11.12;5.47;;;;;;;-0.23;81.37;100844.45;1825210;78;21323;-71
2022/01/22 00:54:24;;;;;;;17.85;6.95;;;;;;;-0.22;81.44;100839.14;1824885;78;21050;-71
2022/01/22 00:56:50;;;;;;;20.52;7.45;;;;;;;-0.20;81.51;100846.89;1824854;78;21080;-71
2022/01/22 00:59:16;;;;;;;16.73;7.67;;;;;;;-0.20;81.58;100845.12;1824981;78;21110;-71
2022/01/22 01:01:42;;;;;;;17.67;6.90;;;;;;;-0.18;81.66;100847.67;1824292;78;20986;-71
2022/01/22 01:04:10;;;;;;;17.05;7.05;;;;;;;-0.17;81.72;100846.70;1825232;78;21077;-71
2022/01/22 01:06:37;;;;;;;23.22;9.40;;;;;;;-0.16;81.77;100844.02;1825211;78;21022;-71
2022/01/22 01:09:06;;;;;;;18.42;7.25;;;;;;;-0.14;81.85;100844.75;1825409;78;21006;-71
2022/01/22 01:11:34;;;;;;;15.15;6.75;;;;;;;-0.14;81.93;100840.81;1824909;78;21131;-71
2022/01/22 01:14:03;;;;;;;17.30;8.05;;;;;;;-0.12;81.98;100836.81;1825284;78;21436;-71
2022/01/22 01:35:09;;;;;;;24.80;8.95;;;;;;;0.02;82.47;100825.03;1825206;78;21053;-71
2022/01/22 01:37:35;;;;;;;35.92;12.93;;;;;;;0.06;82.52;100834.40;1824929;78;21783;-72
2022/01/22 01:40:05;;;;;;;184.67;41.37;;;;;;;0.07;82.57;100834.75;1824992;78;21057;-71
2022/01/22 01:43:02;;;;;;;60.08;19.80;;;;;;;0.09;82.61;100839.45;1825004;78;21481;-72
2022/01/22 01:45:04;;;;;;;46.77;14.05;;;;;;;0.09;82.65;100840.77;1818511;78;20978;-72
2022/01/22 01:47:30;;;;;;;30.15;8.90;;;;;;;0.09;82.70;100844.70;1825513;78;20990;-72
2022/01/22 01:49:57;;;;;;;19.30;7.40;;;;;;;0.10;82.73;100837.22;1825194;78;21120;-72
2022/01/22 01:52:34;;;;;;;27.98;9.25;;;;;;;0.12;82.79;100842.34;1825011;78;21505;-72
2022/01/22 01:55:04;;;;;;;22.75;8.43;;;;;;;0.13;82.84;100838.80;1823316;78;21033;-72
2022/01/22 01:57:38;;;;;;;20.92;7.72;;;;;;;0.13;82.88;100844.89;1824473;78;20970;-72
2022/01/22 02:00:01;;;;;;;25.32;7.85;;;;;;;0.14;82.90;100851.80;1824428;78;21078;-72
2022/01/22 02:02:30;;;;;;;32.90;9.53;;;;;;;0.13;82.93;100846.20;1825370;78;21150;-72
2022/01/22 02:04:55;;;;;;;14.87;6.67;;;;;;;0.14;82.98;100854.42;1825241;78;21585;-72
2022/01/22 02:07:21;;;;;;;14.85;6.35;;;;;;;0.14;83.04;100850.98;1825155;78;21459;-72
2022/01/22 02:09:47;;;;;;;15.63;6.58;;;;;;;0.14;83.08;100847.05;1825321;78;21491;-72
2022/01/22 02:12:41;;;;;;;21.37;7.80;;;;;;;0.16;83.12;100852.57;1825145;78;21456;-71
2022/01/22 02:25:41;;;;;;;14.45;7.72;;;;;;;0.16;83.32;100860.90;1776801;80;21073;-71
2022/01/22 02:28:07;;;;;;;14.83;7.58;;;;;;;0.16;83.36;100872.23;1808606;78;21154;-71
2022/01/22 02:30:36;;;;;;;17.25;8.13;;;;;;;0.16;83.40;100872.23;1825424;78;21045;-71
2022/01/22 02:33:20;;;;;;;18.92;8.48;;;;;;;0.17;83.42;100877.86;1824810;78;20994;-71
2022/01/22 02:35:56;;;;;;;20.32;8.95;;;;;;;0.17;83.46;100875.24;1823387;78;21538;-71
2022/01/22 02:38:21;;;;;;;20.10;9.40;;;;;;;0.17;83.51;100884.42;1823914;78;21005;-71
2022/01/22 02:40:47;;;;;;;18.35;8.10;;;;;;;0.18;83.56;100890.48;1824517;78;21178;-71
2022/01/22 02:43:12;;;;;;;15.98;6.97;;;;;;;0.17;83.58;100896.22;1825160;78;21435;-71
2022/01/22 02:45:40;;;;;;;21.07;8.08;;;;;;;0.16;83.62;100890.59;1825133;78;20970;-71
2022/01/22 02:48:06;;;;;;;17.75;8.63;;;;;;;0.16;83.65;100878.79;1825479;78;21011;-71
2022/01/22 02:50:32;;;;;;;21.45;10.20;;;;;;;0.16;83.69;100889.74;1825192;78;21567;-71
2022/01/22 02:53:07;;;;;;;19.00;9.85;;;;;;;0.14;83.71;100894.25;1825050;78;21259;-71
2022/01/22 02:55:33;;;;;;;21.12;10.05;;;;;;;0.14;83.74;100901.63;1825116;78;20970;-71
2022/01/22 02:57:59;;;;;;;20.25;10.15;;;;;;;0.13;83.80;100897.34;1825323;78;20999;-71
2022/01/22 03:00:26;;;;;;;20.77;11.05;;;;;;;0.14;83.82;100901.63;1843445;77;21019;-71
2022/01/22 03:02:52;;;;;;;18.07;9.63;;;;;;;0.14;83.87;100905.55;1833588;78;21040;-71
2022/01/22 03:05:19;;;;;;;19.52;9.53;;;;;;;0.13;83.91;100901.73;1850685;77;21132;-70
2022/01/22 03:07:50;;;;;;;18.45;10.00;;;;;;;0.13;83.94;100899.11;1833027;78;21001;-71
2022/01/22 03:10:15;;;;;;;21.27;9.63;;;;;;;0.09;83.98;100912.87;1849789;77;21026;-71
2022/01/22 03:20:39;;;;;;;13.58;6.20;;;;;;;0.06;84.11;100922.23;1850099;77;20963;-71
2022/01/22 03:28:01;;;;;;;11.73;6.17;;;;;;;-0.12;84.19;100928.55;1833489;78;21020;-71
2022/01/22 03:30:28;;;;;;;14.00;7.65;;;;;;;-0.19;84.21;100935.08;1850655;77;21104;-71
2022/01/22 03:32:55;;;;;;;12.93;6.20;;;;;;;-0.24;84.26;100947.58;1833232;78;20997;-71
2022/01/22 03:37:56;;;;;;;13.70;6.75;;;;;;;-0.36;84.31;100953.08;1833243;77;21056;-71
2022/01/22 03:40:25;;;;;;;14.83;7.65;;;;;;;-0.41;84.34;100959.03;1850481;77;21030;-71
2022/01/22 03:42:52;;;;;;;14.95;6.97;;;;;;;-0.46;84.35;100961.55;1833248;77;21300;-71
2022/01/22 03:45:19;;;;;;;14.50;8.15;;;;;;;-0.50;84.39;100962.19;1850520;77;20979;-71
2022/01/22 03:47:45;;;;;;;12.93;7.20;;;;;;;-0.52;84.44;100971.42;1833285;78;20980;-71
2022/01/22 03:50:12;;;;;;;15.50;7.00;;;;;;;-0.53;84.47;100978.89;1850650;77;20919;-71
2022/01/22 03:52:38;;;;;;;17.02;7.87;;;;;;;-0.52;84.49;100975.81;1833683;78;21131;-71
2022/01/22 03:55:07;;;;;;;14.80;8.13;;;;;;;-0.53;84.52;100978.89;1800439;79;21167;-71
2022/01/22 03:57:33;;;;;;;12.50;6.75;;;;;;;-0.53;84.54;100976.27;1850417;77;21002;-71
2022/01/22 03:59:59;;;;;;;12.55;7.17;;;;;;;-0.52;84.55;100985.83;1838341;77;20913;-71
2022/01/22 04:05:03;;;;;;;14.23;8.30;;;;;;;-0.51;84.59;100998.00;1853514;77;21004;-71
2022/01/22 04:08:04;;;;;;;15.53;9.03;;;;;;;-0.49;84.60;101007.56;1853380;76;21840;-71
2022/01/22 04:10:04;;;;;;;13.13;8.40;;;;;;;-0.52;84.62;101011.17;1849708;77;21512;-71
2022/01/22 04:15:14;;;;;;;16.57;9.48;;;;;;;-0.61;84.65;101025.63;1853611;77;20984;-71
2022/01/22 04:25:40;;;;;;;17.05;10.32;;;;;;;-0.86;84.78;101050.59;1853509;77;21421;-71
2022/01/22 04:28:04;;;;;;;23.92;12.25;;;;;;;-0.93;84.81;101051.39;1853041;76;21102;-71
2022/01/22 04:30:30;;;;;;;18.45;10.88;;;;;;;-0.99;84.81;101050.41;1853468;77;21001;-71
2022/01/22 04:32:56;;;;;;;22.55;12.53;;;;;;;-1.04;84.82;101053.72;1853734;77;21164;-71
2022/01/22 04:35:22;;;;;;;21.07;11.88;;;;;;;-1.11;84.85;101058.89;1853382;77;20968;-71
2022/01/22 04:37:49;;;;;;;18.62;10.75;;;;;;;-1.18;84.86;101063.59;1853573;77;21043;-71
2022/01/22 04:40:15;;;;;;;22.05;12.03;;;;;;;-1.22;84.87;101069.06;1853988;77;21032;-72
2022/01/22 04:42:42;;;;;;;20.25;11.33;;;;;;;-1.30;84.91;101075.17;1853319;77;20830;-71
2022/01/22 04:55:40;;;;;;;20.80;11.43;;;;;;;-1.59;85.00;101087.09;1853390;77;20952;-70
2022/01/22 04:58:06;;;;;;;15.93;7.97;;;;;;;-1.67;85.01;101091.38;1853566;77;21147;-70
2022/01/22 05:00:34;;;;;;;13.40;8.88;;;;;;;-1.74;85.01;101094.37;1853128;76;21453;-70
2022/01/22 05:03:01;;;;;;;16.70;8.98;;;;;;;-1.74;85.03;101099.14;1853200;77;20981;-70
2022/01/22 05:05:27;;;;;;;14.53;7.42;;;;;;;-1.76;85.06;101100.15;1853514;77;20985;-70
2022/01/22 05:07:53;;;;;;;14.85;7.72;;;;;;;-1.78;85.09;101100.21;1853412;77;21059;-70
2022/01/22 05:10:20;;;;;;;16.00;9.73;;;;;;;-1.73;85.10;101106.53;1853627;77;21168;-70
2022/01/22 05:12:46;;;;;;;16.23;10.43;;;;;;;-1.73;85.09;101110.45;1853173;77;20968;-70
2022/01/22 05:15:12;;;;;;;18.90;9.73;;;;;;;-1.70;85.12;101117.69;1853579;77;21012;-70
2022/01/22 05:17:41;;;;;;;14.10;8.18;;;;;;;-1.71;85.13;101127.75;1853401;77;21035;-70
2022/01/22 05:20:15;;;;;;;13.95;7.95;;;;;;;-1.74;85.14;101125.28;1853313;76;21000;-70
2022/01/22 05:22:53;;;;;;;13.93;7.62;;;;;;;-1.79;85.16;101131.18;1852463;77;21532;-70
2022/01/22 05:25:14;;;;;;;13.43;8.25;;;;;;;-1.84;85.18;101138.41;1851200;77;21035;-70
2022/01/22 05:27:55;;;;;;;11.35;7.33;;;;;;;-1.88;85.20;101139.48;1852924;76;21071;-70
2022/01/22 05:33:01;;;;;;;9.95;6.20;;;;;;;-1.98;85.22;101149.98;1804205;77;21083;-70
2022/01/22 05:38:07;;;;;;;8.95;5.20;;;;;;;-2.10;85.26;101157.92;1853046;76;20952;-70
2022/01/22 05:40:35;;;;;;;8.83;6.00;;;;;;;-2.15;85.28;101165.60;1853640;77;21067;-70
2022/01/22 05:43:03;;;;;;;13.78;7.45;;;;;;;-2.20;85.33;101167.56;1853562;77;21035;-70
2022/01/22 05:45:29;;;;;;;11.75;7.22;;;;;;;-2.26;85.32;101170.46;1853697;76;21031;-69
2022/01/22 05:47:55;;;;;;;12.00;6.75;;;;;;;-2.30;85.34;101183.27;1853674;77;21445;-70
2022/01/22 05:50:32;;;;;;;7.40;5.42;;;;;;;-2.34;85.35;101183.02;1853527;77;21453;-70
2022/01/22 05:53:00;;;;;;;8.58;5.25;;;;;;;-2.36;85.36;101194.00;1851425;76;21308;-70
2022/01/22 05:55:41;;;;;;;8.45;4.90;;;;;;;-2.40;85.37;101197.66;1851212;77;20988;-70
2022/01/22 06:00:35;;;;;;;9.70;6.05;;;;;;;-2.46;85.42;101207.08;1855230;77;21152;-70
2022/01/22 06:03:01;;;;;;;10.60;6.40;;;;;;;-2.47;85.44;101213.20;1861673;77;20976;-70
2022/01/22 06:05:27;;;;;;;7.20;5.20;;;;;;;-2.50;85.43;101212.05;1861432;77;21023;-70
2022/01/22 06:07:53;;;;;;;11.50;6.67;;;;;;;-2.53;85.45;101221.69;1861324;77;21027;-70
2022/01/22 06:10:26;;;;;;;9.78;6.58;;;;;;;-2.55;85.47;101220.06;1861490;77;21063;-69
2022/01/22 06:15:16;;;;;;;46.13;15.23;;;;;;;-2.60;85.51;101235.92;1861527;77;21430;-70
2022/01/22 06:17:42;;;;;;;46.90;15.93;;;;;;;-2.61;85.55;101232.94;1861335;77;21500;-70
2022/01/22 06:20:12;;;;;;;25.25;12.55;;;;;;;-2.61;85.58;101242.08;1861478;77;21016;-70
2022/01/22 06:22:36;;;;;;;23.87;13.40;;;;;;;-2.64;85.60;101239.57;1860865;76;21032;-70
2022/01/22 06:25:03;;;;;;;24.20;16.07;;;;;;;-2.62;85.63;101245.59;1861519;77;21069;-70
2022/01/22 06:27:30;;;;;;;29.67;18.10;;;;;;;-2.57;85.64;101246.23;1861394;77;21043;-70
2022/01/22 06:29:56;;;;;;;32.40;20.52;;;;;;;-2.55;85.67;101256.16;1861043;77;21027;-70
2022/01/22 06:32:22;;;;;;;35.68;26.15;;;;;;;-2.54;85.68;101264.40;1861550;77;21020;-70
2022/01/22 06:34:50;;;;;;;32.70;22.05;;;;;;;-2.50;85.70;101266.88;1861187;77;21004;-70
2022/01/22 06:37:16;;;;;;;23.25;15.20;;;;;;;-2.53;85.67;101279.58;1861220;77;21162;-70
2022/01/22 06:42:26;;;;;;;30.00;12.78;;;;;;;-2.58;85.69;101288.94;1856810;77;21027;-70
2022/01/22 06:44:52;;;;;;;24.12;11.83;;;;;;;-2.57;85.72;101295.83;1817167;78;20981;-70
2022/01/22 06:47:18;;;;;;;24.57;13.05;;;;;;;-2.58;85.74;101301.99;1804238;78;21029;-70
2022/01/22 06:49:44;;;;;;;27.75;15.85;;;;;;;-2.57;85.73;101304.15;1801324;78;21152;-70
2022/01/22 06:52:10;;;;;;;23.25;13.68;;;;;;;-2.57;85.74;101307.58;1822370;77;21503;-69
2022/01/22 06:54:36;;;;;;;25.30;12.20;;;;;;;-2.58;85.75;101305.91;1816570;78;21482;-69
2022/01/22 06:57:02;;;;;;;25.50;12.20;;;;;;;-2.56;85.75;101322.34;1812744;78;20998;-70
2022/01/22 06:59:28;;;;;;;28.23;13.93;;;;;;;-2.53;85.75;101329.19;1839075;77;21034;-69
2022/01/22 07:01:55;;;;;;;35.95;18.20;;;;;;;-2.51;85.76;101333.91;1848448;77;20939;-69
2022/01/22 07:04:21;;;;;;;40.45;21.20;;;;;;;-2.53;85.78;101332.66;1866844;76;20955;-69
2022/01/22 07:06:47;;;;;;;44.95;21.30;;;;;;;-2.54;85.77;101340.12;1847422;77;21030;-69
2022/01/22 07:09:13;;;;;;;42.70;23.15;;;;;;;-2.57;85.77;101340.22;1866950;76;20970;-69
2022/01/22 07:11:39;;;;;;;53.60;30.27;;;;;;;-2.59;85.80;101349.89;1847971;77;20983;-69
2022/01/22 07:14:05;;;;;;;69.37;39.55;;;;;;;-2.60;85.83;101353.85;1866741;76;21765;-69
2022/01/22 07:16:32;;;;;;;71.25;39.60;;;;;;;-2.61;85.83;101355.64;1847823;77;21531;-69
2022/01/22 07:19:01;;;;;;;62.65;36.80;;;;;;;-2.60;85.83;101363.84;1866981;76;20979;-69
2022/01/22 07:21:28;;;;;;;59.90;37.65;;;;;;;-2.61;85.87;101358.25;1847457;77;21049;-70
2022/01/22 07:24:22;;;;;;;53.95;27.30;;;;;;;-2.56;85.86;101365.42;1866979;76;20991;-69
2022/01/22 07:26:21;;;;;;;34.55;19.70;;;;;;;-2.28;85.81;101368.18;1824449;78;21384;-70
2022/01/22 07:28:47;;;;;;;34.70;20.02;;;;;;;-1.97;85.70;101372.48;1831686;78;26768;-69
2022/01/22 07:31:13;;;;;;;37.40;19.32;;;;;;;-1.80;85.62;101373.92;1823806;78;26439;-69
2022/01/22 07:33:39;;;;;;;35.80;18.57;;;;;;;-1.85;85.60;101385.03;1801840;78;21026;-70
2022/01/22 07:36:05;;;;;;;35.15;17.52;;;;;;;-2.03;85.67;101385.37;1812349;78;20986;-70
2022/01/22 07:38:37;;;;;;;46.63;22.65;;;;;;;-2.10;85.72;101388.30;1857042;76;21714;-70
2022/01/22 07:41:00;;;;;;;49.85;22.15;;;;;;;-2.08;85.72;101388.66;1827303;78;21023;-70
2022/01/22 07:43:26;;;;;;;32.73;14.60;;;;;;;-2.05;85.73;101386.36;1819790;78;20956;-70
2022/01/22 07:45:52;;;;;;;32.73;13.95;;;;;;;-2.00;85.80;101396.13;1815556;78;21014;-70
2022/01/22 07:48:18;;;;;;;19.95;10.35;;;;;;;-1.98;85.84;101396.94;1814670;77;20890;-69
2022/01/22 07:50:44;;;;;;;25.43;12.28;;;;;;;-1.92;85.86;101401.89;1814176;78;21150;-70
2022/01/22 07:53:10;;;;;;;24.20;14.78;;;;;;;-1.84;85.90;101402.42;1806377;78;21535;-70
2022/01/22 07:55:36;;;;;;;36.08;17.73;;;;;;;-1.79;85.92;101403.05;1803676;78;20928;-70
2022/01/22 07:58:02;;;;;;;55.00;24.07;;;;;;;-1.70;85.96;101409.20;1821852;78;21042;-69
2022/01/22 08:00:28;;;;;;;62.38;22.37;;;;;;;-1.65;85.98;101415.06;1830522;78;21002;-69
2022/01/22 08:02:54;;;;;;;60.88;21.85;;;;;;;-1.60;86.00;101426.17;1817439;77;21749;-69
2022/01/22 08:05:20;;;;;;;40.05;15.13;;;;;;;-1.55;86.04;101428.11;1824434;78;20998;-69
2022/01/22 08:07:46;;;;;;;36.75;13.48;;;;;;;-1.49;86.05;101423.54;1821840;78;20982;-70
2022/01/22 08:10:13;;;;;;;53.10;22.60;;;;;;;-1.41;86.09;101438.45;1841765;77;21480;-70
2022/01/22 08:12:42;;;;;;;47.58;20.32;;;;;;;-1.34;86.11;101443.79;1830584;77;21034;-70
2022/01/22 08:15:10;;;;;;;31.60;13.83;;;;;;;-1.28;86.13;101441.75;1815947;78;21210;-70
2022/01/22 08:17:36;;;;;;;27.93;11.55;;;;;;;-1.23;86.12;101444.16;1822801;78;21479;-70
2022/01/22 08:20:03;;;;;;;63.40;19.73;;;;;;;-1.19;86.16;101445.70;1805066;78;21024;-70
2022/01/22 08:22:29;;;;;;;72.75;21.42;;;;;;;-1.12;86.15;101454.97;1799115;79;21450;-70
2022/01/22 08:24:57;;;;;;;34.33;12.73;;;;;;;-1.09;86.15;101462.70;1799695;79;20969;-70
2022/01/22 08:29:55;;;;;;;40.50;13.40;;;;;;;-1.03;86.15;101467.20;1825859;76;21010;-70
2022/01/22 08:32:57;;;;;;;34.30;11.95;;;;;;;-1.01;86.12;101473.20;1815674;77;21471;-70
2022/01/22 08:37:46;;;;;;;21.05;7.20;;;;;;;-0.97;86.11;101477.83;1837318;75;20152;-71
2022/01/22 08:40:12;;;;;;;23.70;8.20;;;;;;;-0.98;86.08;101483.98;1818764;78;21469;-70
2022/01/22 08:42:38;;;;;;;14.58;6.60;;;;;;;-0.97;86.06;101480.91;1812325;78;21517;-70
2022/01/22 08:45:06;;;;;;;20.75;6.47;;;;;;;-0.97;85.98;101486.14;1844848;75;21001;-70
2022/01/22 08:47:32;;;;;;;14.23;5.75;;;;;;;-0.94;85.97;101485.55;1846784;75;21028;-70
2022/01/22 08:49:58;;;;;;;20.02;7.78;;;;;;;-0.92;85.94;101485.03;1846064;77;21083;-70
2022/01/22 08:52:28;;;;;;;20.05;8.88;;;;;;;-0.92;85.90;101478.48;1826319;78;21079;-69
2022/01/22 08:54:51;;;;;;;22.73;9.63;;;;;;;-0.89;85.84;101487.95;1834615;77;21010;-70
2022/01/22 08:57:18;;;;;;;24.92;11.53;;;;;;;-0.85;85.83;101491.68;1855527;75;21402;-70
2022/01/22 08:59:44;;;;;;;21.30;10.50;;;;;;;-0.79;85.80;101500.55;1844429;77;21276;-70
2022/01/22 09:02:10;;;;;;;13.62;7.20;;;;;;;-0.78;85.77;101504.87;1825807;77;21006;-71
2022/01/22 09:04:37;;;;;;;16.17;8.03;;;;;;;-0.77;85.73;101511.80;1830822;77;21178;-71
2022/01/22 09:07:03;;;;;;;19.90;8.00;;;;;;;-0.76;85.72;101506.95;1819106;78;21010;-71
2022/01/22 09:09:29;;;;;;;15.72;7.60;;;;;;;-0.76;85.67;101508.27;1819934;77;21045;-71
2022/01/22 09:11:55;;;;;;;26.33;10.70;;;;;;;-0.74;85.63;101506.41;1839544;77;21033;-71
2022/01/22 09:14:21;;;;;;;13.70;5.67;;;;;;;-0.67;85.58;101515.68;1835446;77;21369;-70
2022/01/22 09:16:48;;;;;;;20.55;8.98;;;;;;;-0.65;85.53;101517.79;1831111;77;21133;-70
2022/01/22 09:19:14;;;;;;;15.43;6.30;;;;;;;-0.62;85.51;101520.27;1818664;78;21002;-70
2022/01/22 09:21:43;;;;;;;15.63;7.05;;;;;;;-0.60;85.44;101521.02;1828733;77;21042;-70
2022/01/22 09:24:09;;;;;;;18.77;8.43;;;;;;;-0.60;85.38;101518.41;1834543;77;21002;-70
2022/01/22 09:26:35;;;;;;;15.95;5.90;;;;;;;-0.57;85.34;101519.59;1828781;77;21014;-70
2022/01/22 09:29:04;;;;;;;15.88;5.78;;;;;;;-0.56;85.28;101523.89;1832757;76;21143;-70
2022/01/22 09:31:30;;;;;;;22.37;7.42;;;;;;;-0.53;85.23;101534.23;1829798;76;21018;-70
2022/01/22 09:33:58;;;;;;;18.75;7.42;;;;;;;-0.51;85.17;101539.41;1833849;76;21054;-71
2022/01/22 09:36:24;;;;;;;14.30;6.10;;;;;;;-0.49;85.12;101544.09;1836845;76;21463;-71
2022/01/22 09:38:50;;;;;;;21.50;7.92;;;;;;;-0.46;85.06;101539.20;1830381;76;21004;-70
2022/01/22 09:41:17;;;;;;;23.57;10.68;;;;;;;-0.47;85.01;101547.97;1831860;76;21117;-70
2022/01/22 09:43:43;;;;;;;14.87;6.67;;;;;;;-0.47;84.92;101545.35;1833605;76;21007;-70
2022/01/22 09:46:09;;;;;;;19.45;7.85;;;;;;;-0.43;84.86;101553.47;1836440;76;21014;-70
2022/01/22 09:48:43;;;;;;;21.35;8.13;;;;;;;-0.40;84.79;101553.31;1844631;76;21472;-70
2022/01/22 09:51:10;;;;;;;20.17;7.80;;;;;;;-0.37;84.75;101559.72;1814153;76;21070;-70
2022/01/22 09:53:36;;;;;;;25.65;12.10;;;;;;;-0.35;84.66;101557.41;1817271;78;21577;-70
2022/01/22 09:56:02;;;;;;;28.02;12.33;;;;;;;-0.32;84.62;101552.50;1800497;78;21648;-70
2022/01/22 09:58:29;;;;;;;40.80;14.43;;;;;;;-0.28;84.54;101554.88;1819854;78;21013;-70
2022/01/22 10:01:25;;;;;;;142.70;51.40;;;;;;;-0.27;84.45;101555.73;1814222;78;21053;-70
2022/01/22 10:03:58;;;;;;;23.45;9.88;;;;;;;-0.24;84.42;101561.69;1803190;78;21519;-70
2022/01/22 10:06:27;;;;;;;157.57;54.73;;;;;;;-0.25;84.29;101567.02;1805133;78;21120;-70
2022/01/22 10:09:11;;;;;;;32.75;13.55;;;;;;;-0.25;84.23;101559.16;1813794;78;22125;-70
2022/01/22 10:11:37;;;;;;;42.78;20.50;;;;;;;-0.23;84.17;101563.84;1809991;77;21019;-70
2022/01/22 10:14:04;;;;;;;21.55;10.13;;;;;;;-0.18;84.10;101564.49;1804124;78;21612;-71
2022/01/22 10:16:35;;;;;;;26.97;12.45;;;;;;;-0.17;84.04;101564.41;1819002;78;20960;-71
2022/01/22 10:19:21;;;;;;;21.93;9.68;;;;;;;-0.15;83.96;101566.50;1816387;78;21115;-71
2022/01/22 10:22:01;;;;;;;18.00;8.08;;;;;;;-0.11;83.87;101567.21;1813736;77;21024;-70
2022/01/22 10:24:44;;;;;;;44.58;15.72;;;;;;;-0.02;83.80;101570.23;1813205;78;20978;-72
2022/01/22 10:27:26;;;;;;;18.90;8.05;;;;;;;0.09;83.70;101579.34;1814058;78;21067;-71
2022/01/22 10:30:01;;;;;;;18.10;7.00;;;;;;;0.19;83.61;101580.59;1815064;78;21450;-71
2022/01/22 10:35:19;;;;;;;27.42;11.48;;;;;;;0.25;83.45;101583.77;1837110;77;21554;-72
2022/01/22 10:37:45;;;;;;;32.70;14.05;;;;;;;0.28;83.36;101585.41;1808853;78;21024;-71
2022/01/22 10:40:33;;;;;;;20.68;7.75;;;;;;;0.33;83.27;101588.63;1811140;78;21375;-72
2022/01/22 10:43:30;;;;;;;27.70;10.63;;;;;;;0.34;83.19;101579.85;1803166;78;21022;-72
2022/01/22 10:46:13;;;;;;;31.80;12.33;;;;;;;0.38;83.14;101586.19;1817108;77;21554;-72
2022/01/22 10:48:42;;;;;;;22.35;9.43;;;;;;;0.39;83.00;101589.63;1813788;78;21498;-71
2022/01/22 10:51:15;;;;;;;13.70;5.85;;;;;;;0.50;82.94;101589.50;1813184;78;21503;-71
2022/01/22 10:53:49;;;;;;;16.97;7.25;;;;;;;0.48;82.81;101593.98;1816695;78;20982;-71
2022/01/22 10:56:19;;;;;;;16.60;6.28;;;;;;;0.41;82.66;101593.91;1816388;78;21645;-72
2022/01/22 10:59:05;;;;;;;40.85;15.18;;;;;;;0.41;82.57;101589.97;1812283;77;21163;-71
2022/01/22 11:01:51;;;;;;;17.73;6.30;;;;;;;0.46;82.48;101596.28;1802388;78;21014;-71
2022/01/22 11:04:27;;;;;;;38.30;13.85;;;;;;;0.45;82.31;101596.77;1816627;78;21021;-71
2022/01/22 11:06:57;;;;;;;28.73;10.13;;;;;;;0.42;82.14;101598.20;1818887;78;21666;-71
2022/01/22 11:09:24;;;;;;;35.33;12.37;;;;;;;0.46;81.92;101597.59;1811420;78;21007;-70
2022/01/22 11:11:51;;;;;;;27.35;9.43;;;;;;;0.29;81.71;101600.20;1812286;78;21618;-71
2022/01/22 11:14:17;;;;;;;24.35;8.60;;;;;;;0.17;81.53;101604.30;1837324;77;21429;-70
2022/01/22 11:16:46;;;;;;;19.40;8.80;;;;;;;0.19;81.43;101607.67;1810045;79;20991;-73
2022/01/22 11:19:16;;;;;;;18.67;7.30;;;;;;;0.24;81.29;101612.70;1803631;78;20973;-72
2022/01/22 11:21:47;;;;;;;12.82;5.25;;;;;;;0.34;81.15;101609.56;1837763;77;21021;-72
2022/01/22 11:24:16;;;;;;;11.25;5.58;;;;;;;0.55;81.03;101613.36;1828926;77;21839;-72
2022/01/22 11:26:46;;;;;;;15.45;6.47;;;;;;;0.67;80.84;101613.58;1822086;77;20988;-71
2022/01/22 11:29:12;;;;;;;18.70;7.58;;;;;;;0.77;80.72;101624.03;1835739;76;21091;-71
2022/01/22 11:31:38;;;;;;;17.00;6.58;;;;;;;0.82;80.57;101623.77;1837530;77;21030;-71
2022/01/22 11:34:05;;;;;;;24.43;9.53;;;;;;;0.80;80.42;101625.64;1846802;77;21085;-71
2022/01/22 11:36:38;;;;;;;25.00;9.90;;;;;;;0.73;80.24;101621.62;1853046;77;21468;-71
2022/01/22 11:39:04;;;;;;;25.43;9.68;;;;;;;0.71;80.08;101616.44;1853551;77;20960;-71
2022/01/22 11:41:30;;;;;;;27.80;11.25;;;;;;;0.70;79.94;101621.78;1853131;77;20975;-70
2022/01/22 11:44:09;;;;;;;40.92;16.10;;;;;;;0.67;79.80;101629.81;1843941;77;21064;-71
2022/01/22 11:46:37;;;;;;;28.70;10.93;;;;;;;0.69;79.69;101625.33;1840603;77;20977;-71
2022/01/22 11:49:22;;;;;;;;;;;;;;;0.58;79.52;101632.88;1856162;77;21011;-71
2022/01/22 11:51:50;;;;;;;36.23;11.45;;;;;;;0.41;79.38;101631.95;1812991;78;20165;-70
2022/01/22 11:54:18;;;;;;;23.83;8.95;;;;;;;0.24;79.23;101645.04;1850764;77;20959;-71
2022/01/22 11:56:53;;;;;;;21.15;7.12;;;;;;;0.17;79.14;101642.78;1845093;77;21003;-70
2022/01/22 11:59:25;;;;;;;20.52;6.10;;;;;;;0.21;79.06;101646.95;1819861;78;21043;-70
2022/01/22 12:01:56;;;;;;;14.33;5.22;;;;;;;0.26;78.91;101646.26;1847956;77;21101;-70
2022/01/22 12:04:29;;;;;;;13.10;5.55;;;;;;;0.32;78.78;101638.94;1804442;78;21500;-70
2022/01/22 12:07:07;;;;;;;9.95;3.60;;;;;;;0.45;78.64;101637.44;1803004;78;21517;-70
2022/01/22 12:09:52;;;;;;;6.55;3.08;;;;;;;0.58;78.52;101645.55;1817490;78;21027;-71
2022/01/22 12:15:27;;;;;;;16.40;5.17;;;;;;;0.92;78.24;101646.00;1812499;78;21455;-71
2022/01/22 12:18:01;;;;;;;15.65;6.92;;;;;;;0.92;77.99;101652.11;1830096;77;21484;-72
2022/01/22 12:23:10;;;;;;;27.65;10.80;;;;;;;0.86;77.73;101655.52;1816659;78;21027;-72
2022/01/22 12:25:42;;;;;;;16.97;6.62;;;;;;;0.94;77.60;101661.23;1817483;78;21020;-71
2022/01/22 12:28:09;;;;;;;22.65;7.40;;;;;;;0.97;77.47;101654.52;1831086;78;21563;-71
2022/01/22 12:30:43;;;;;;;15.35;6.10;;;;;;;0.93;77.28;101662.16;1831676;78;21451;-71
2022/01/22 12:33:15;;;;;;;33.63;11.55;;;;;;;0.94;77.17;101673.05;1814678;78;21070;-71
2022/01/22 12:35:46;;;;;;;49.27;15.20;;;;;;;0.83;77.04;101664.86;1807834;78;21557;-71
2022/01/22 12:44:27;;;;;;;45.98;15.48;;;;;;;0.73;76.74;101676.75;1820149;78;20954;-71
2022/01/22 12:46:43;;;;;;;65.25;20.00;;;;;;;0.59;76.62;101676.58;1821958;77;20991;-71
2022/01/22 12:49:09;;;;;;;31.45;12.82;;;;;;;0.44;76.53;101681.65;1821831;77;21058;-71
2022/01/22 12:51:36;;;;;;;36.95;12.98;;;;;;;0.45;76.48;101682.05;1822593;77;20983;-71
2022/01/22 12:54:02;;;;;;;54.77;16.73;;;;;;;0.47;76.37;101684.13;1848135;77;21959;-71
2022/01/22 12:59:08;;;;;;;35.33;12.50;;;;;;;0.44;76.10;101692.14;1851345;77;32801;-71
2022/01/22 13:01:36;;;;;;;24.05;8.63;;;;;;;0.42;75.91;101695.28;1851678;77;21008;-71
2022/01/22 13:04:05;;;;;;;35.25;11.25;;;;;;;0.43;75.82;101694.37;1787237;80;21058;-70
2022/01/22 13:06:47;;;;;;;46.58;13.20;;;;;;;0.43;75.72;101696.99;1803414;79;22388;-70
2022/01/22 13:09:14;;;;;;;25.10;9.50;;;;;;;0.50;75.62;101704.96;1766242;80;20955;-70